createdAt,value
2023-04-25T00:00:51.394Z,99048.70
2023-04-25T00:03:59.381Z,99051.35
2023-04-25T00:07:03.504Z,99051.98
2023-04-25T00:10:08.637Z,99049.77
2023-04-25T00:13:12.583Z,99051.02
2023-04-25T00:16:16.779Z,99054.35
2023-04-25T00:19:21.036Z,99053.27
2023-04-25T00:22:24.982Z,99052.84
2023-04-25T00:25:29.014Z,99051.87
2023-04-25T00:28:33.057Z,99044.66
2023-04-25T00:31:37.076Z,99041.87
2023-04-25T00:34:41.208Z,99038.64
2023-04-25T00:37:45.902Z,99043.86
2023-04-25T00:40:49.843Z,99044.68
2023-04-25T00:43:55.764Z,99045.08
2023-04-25T00:47:01.653Z,99049.30
2023-04-25T00:50:06.761Z,99050.45
2023-04-25T00:53:11.122Z,99055.20
2023-04-25T00:56:15.539Z,99056.68
2023-04-25T00:59:20.526Z,99060.79
2023-04-25T01:02:24.843Z,99060.05
2023-04-25T01:05:29.007Z,99055.34
2023-04-25T01:08:32.979Z,99055.79
2023-04-25T01:11:37.359Z,99054.02
2023-04-25T01:14:41.475Z,99058.41
2023-04-25T01:17:46.077Z,99056.01
2023-04-25T01:20:52.980Z,99053.52
2023-04-25T01:23:58.699Z,99050.27
2023-04-25T01:27:03.398Z,99049.55
2023-04-25T01:30:08.597Z,99051.34
2023-04-25T01:33:16.637Z,99052.04
2023-04-25T01:36:22.557Z,99049.55
2023-04-25T01:39:26.913Z,99049.67
2023-04-25T01:42:30.929Z,99052.38
2023-04-25T01:45:37.413Z,99051.26
2023-04-25T01:48:41.419Z,99047.38
2023-04-25T01:51:45.416Z,99050.42
2023-04-25T01:54:52.022Z,99044.95
2023-04-25T01:57:56.125Z,99051.77
2023-04-25T02:01:08.973Z,99045.14
2023-04-25T02:04:17.597Z,99040.73
2023-04-25T02:07:22.225Z,99036.36
2023-04-25T02:10:29.701Z,99038.31
2023-04-25T02:13:55.520Z,99037.00
2023-04-25T02:17:14.868Z,99038.90
2023-04-25T02:20:19.319Z,99035.64
2023-04-25T02:23:23.326Z,99039.06
2023-04-25T02:26:27.991Z,99036.86
2023-04-25T02:29:31.905Z,99038.77
2023-04-25T02:32:36.353Z,99035.36
2023-04-25T02:35:40.310Z,99037.19
2023-04-25T02:38:44.351Z,99033.11
2023-04-25T02:41:48.240Z,99029.73
2023-04-25T02:44:52.123Z,99024.19
2023-04-25T02:47:56.193Z,99024.98
2023-04-25T02:51:00.155Z,99027.71
2023-04-25T02:54:04.441Z,99025.91
2023-04-25T02:57:10.584Z,99026.58
2023-04-25T03:00:15.364Z,99029.02
2023-04-25T03:03:22.747Z,99023.77
2023-04-25T03:06:27.245Z,99022.40
2023-04-25T03:09:31.344Z,99022.77
2023-04-25T03:12:35.379Z,99018.07
2023-04-25T03:15:40.010Z,99021.02
2023-04-25T03:18:44.845Z,99025.41
2023-04-25T03:21:49.582Z,99024.98
2023-04-25T03:24:53.604Z,99028.02
2023-04-25T03:27:57.610Z,99027.42
2023-04-25T03:31:01.850Z,99032.90
2023-04-25T03:34:05.830Z,99036.04
2023-04-25T03:37:09.870Z,99041.23
2023-04-25T03:40:15.709Z,99044.13
2023-04-25T03:43:37.011Z,99046.38
2023-04-25T03:46:43.096Z,99047.40
2023-04-25T03:49:47.036Z,99047.59
2023-04-25T03:52:51.551Z,99041.08
2023-04-25T03:55:55.966Z,99041.11
2023-04-25T03:58:59.991Z,99042.88
2023-04-25T04:02:04.756Z,99042.44
2023-04-25T04:05:11.492Z,99044.30
2023-04-25T04:08:19.718Z,99046.21
2023-04-25T04:11:23.731Z,99051.11
2023-04-25T04:14:27.659Z,99050.09
2023-04-25T04:17:33.026Z,99052.69
2023-04-25T04:20:37.309Z,99054.62
2023-04-25T04:23:41.953Z,99054.61
2023-04-25T04:26:47.390Z,99058.46
2023-04-25T04:30:11.150Z,99061.80
2023-04-25T04:33:24.529Z,99065.42
2023-04-25T04:36:34.580Z,99067.80
2023-04-25T04:39:38.635Z,99070.36
2023-04-25T04:42:57.568Z,99071.55
2023-04-25T04:46:17.492Z,99074.91
2023-04-25T04:49:48.020Z,99074.13
2023-04-25T04:53:08.450Z,99076.66
2023-04-25T04:56:15.351Z,99079.46
2023-04-25T04:59:28.388Z,99084.98
2023-04-25T05:02:51.428Z,99084.48
2023-04-25T05:06:07.598Z,99081.80
2023-04-25T05:09:26.936Z,99075.55
2023-04-25T05:12:49.887Z,99077.83
2023-04-25T05:16:21.350Z,99074.46
2023-04-25T05:19:45.950Z,99070.31
2023-04-25T05:23:12.196Z,99070.95
2023-04-25T05:26:19.277Z,99073.98
2023-04-25T05:29:41.839Z,99080.70
2023-04-25T05:33:02.729Z,99082.25
2023-04-25T05:36:08.297Z,99084.38
2023-04-25T05:39:13.216Z,99085.63
2023-04-25T05:42:46.847Z,99085.98
2023-04-25T05:46:03.691Z,99088.63
2023-04-25T05:49:32.350Z,99095.49
2023-04-25T05:52:57.446Z,99103.50
2023-04-25T05:56:05.775Z,99113.09
2023-04-25T05:59:09.703Z,99126.11
2023-04-25T06:02:13.900Z,99132.95
2023-04-25T06:05:19.374Z,99139.83
2023-04-25T06:08:24.384Z,99146.20
2023-04-25T06:11:28.397Z,99144.05
2023-04-25T06:14:32.520Z,99143.50
2023-04-25T06:17:37.038Z,99144.52
2023-04-25T06:20:41.476Z,99142.85
2023-04-25T06:23:45.509Z,99141.92
2023-04-25T06:26:56.267Z,99138.14
2023-04-25T06:30:00.778Z,99133.95
2023-04-25T06:33:05.155Z,99135.33
2023-04-25T06:36:09.523Z,99128.34
2023-04-25T06:39:14.708Z,99126.49
2023-04-25T06:42:18.765Z,99121.59
2023-04-25T06:45:35.925Z,99129.40
2023-04-25T06:48:39.953Z,99122.64
2023-04-25T06:51:44.159Z,99131.39
2023-04-25T06:54:48.181Z,99127.91
2023-04-25T06:58:24.881Z,99135.34
2023-04-25T07:01:42.002Z,99137.89
2023-04-25T07:04:49.937Z,99136.30
2023-04-25T07:07:54.155Z,99135.55
2023-04-25T07:10:58.524Z,99135.84
2023-04-25T07:14:03.082Z,99135.54
2023-04-25T07:17:07.805Z,99136.84
2023-04-25T07:20:12.328Z,99135.20
2023-04-25T07:23:16.715Z,99139.42
2023-04-25T07:26:20.993Z,99145.57
2023-04-25T07:29:43.632Z,99146.70
2023-04-25T07:32:48.005Z,99145.89
2023-04-25T07:35:53.196Z,99146.08
2023-04-25T07:38:57.575Z,99144.86
2023-04-25T07:42:03.167Z,99137.59
2023-04-25T07:45:08.735Z,99137.75
2023-04-25T07:48:19.573Z,99141.86
2023-04-25T07:51:23.886Z,99143.38
2023-04-25T07:54:29.883Z,99147.14
2023-04-25T07:57:39.635Z,99151.85
2023-04-25T08:00:43.850Z,99154.28
2023-04-25T08:03:57.504Z,99157.69
2023-04-25T08:07:09.883Z,99159.77
2023-04-25T08:10:24.162Z,99164.82
2023-04-25T08:13:28.706Z,99168.45
2023-04-25T08:16:32.968Z,99175.60
2023-04-25T08:19:37.141Z,99177.67
2023-04-25T08:22:41.558Z,99181.41
2023-04-25T08:26:01.844Z,99185.53
2023-04-25T08:29:07.300Z,99187.02
2023-04-25T08:32:12.960Z,99186.63
2023-04-25T08:35:19.562Z,99190.22
2023-04-25T08:38:23.654Z,99191.70
2023-04-25T09:25:59.710Z,99248.60
2023-04-25T09:29:08.522Z,99254.30
2023-04-25T09:32:23.563Z,99251.20
2023-04-25T09:35:28.973Z,99250.87
2023-04-25T09:38:46.217Z,99253.20
2023-04-25T09:41:55.952Z,99251.27
2023-04-25T09:45:03.459Z,99245.98
2023-04-25T09:48:10.109Z,99245.45
2023-04-25T09:51:15.581Z,99248.50
2023-04-25T09:54:20.928Z,99251.94
2023-04-25T09:57:27.301Z,99253.19
2023-04-25T10:00:34.787Z,99254.64
2023-04-25T10:03:45.720Z,99263.71
2023-04-25T10:07:27.130Z,99262.40
2023-04-25T10:10:37.137Z,99261.65
2023-04-25T10:13:42.778Z,99260.68
2023-04-25T10:16:48.413Z,99259.77
2023-04-25T10:19:53.211Z,99261.25
2023-04-25T10:22:59.527Z,99265.45
2023-04-25T10:26:03.646Z,99262.47
2023-04-25T10:29:07.615Z,99261.66
2023-04-25T10:32:11.843Z,99261.80
2023-04-25T10:35:25.077Z,99263.15
2023-04-25T10:38:29.234Z,99259.98
2023-04-25T10:41:47.262Z,99258.55
2023-04-25T10:45:06.758Z,99256.77
2023-04-25T10:48:29.918Z,99257.46
2023-04-25T10:51:51.531Z,99258.52
2023-04-25T10:54:59.614Z,99259.09
2023-04-25T10:58:04.193Z,99260.23
2023-04-25T11:01:08.779Z,99258.14
2023-04-25T11:04:33.235Z,99261.67
2023-04-25T11:08:06.513Z,99264.40
2023-04-25T11:11:21.909Z,99269.66
2023-04-25T11:14:26.251Z,99264.34
2023-04-25T11:17:31.115Z,99268.23
2023-04-25T11:20:35.162Z,99261.95
2023-04-25T11:23:39.293Z,99265.66
2023-04-25T11:26:44.433Z,99265.27
2023-04-25T11:29:49.193Z,99265.02
2023-04-25T11:32:54.044Z,99264.14
2023-04-25T11:35:59.050Z,99260.15
2023-04-25T11:39:03.174Z,99263.10
2023-04-25T11:42:07.652Z,99258.17
2023-04-25T11:45:14.373Z,99259.66
2023-04-25T11:48:26.190Z,99260.71
2023-04-25T11:51:48.536Z,99256.40
2023-04-25T11:54:52.553Z,99259.77
2023-04-25T11:57:56.803Z,99258.86
2023-04-25T12:01:00.798Z,99254.66
2023-04-25T12:04:17.101Z,99257.81
2023-04-25T12:07:23.953Z,99260.42
2023-04-25T12:10:27.893Z,99248.73
2023-04-25T12:13:32.805Z,99251.73
2023-04-25T12:16:47.359Z,99252.11
2023-04-25T12:19:51.588Z,99253.42
2023-04-25T12:22:56.750Z,99252.05
2023-04-25T12:26:03.810Z,99252.49
2023-04-25T12:29:20.437Z,99252.40
2023-04-25T12:32:25.162Z,99252.14
2023-04-25T12:35:29.164Z,99249.23
2023-04-25T12:38:37.799Z,99253.34
2023-04-25T12:41:41.820Z,99249.19
2023-04-25T12:44:46.345Z,99253.49
2023-04-25T12:47:50.401Z,99253.64
2023-04-25T12:50:54.581Z,99253.15
2023-04-25T12:53:58.597Z,99252.80
2023-04-25T12:57:04.078Z,99251.09
2023-04-25T13:00:11.241Z,99252.36
2023-04-25T13:03:15.656Z,99251.25
2023-04-25T13:06:21.522Z,99247.11
2023-04-25T13:09:25.676Z,99243.96
2023-04-25T13:12:29.757Z,99239.52
2023-04-25T13:15:33.718Z,99236.34
2023-04-25T13:18:38.113Z,99237.00
2023-04-25T13:21:42.112Z,99236.53
2023-04-25T13:24:46.126Z,99235.21
2023-04-25T13:27:50.445Z,99236.17
2023-04-25T13:30:54.963Z,99241.11
2023-04-25T13:33:58.903Z,99236.23
2023-04-25T13:37:02.911Z,99237.77
2023-04-25T13:40:11.257Z,99237.71
2023-04-25T13:43:15.442Z,99235.46
2023-04-25T13:49:26.651Z,99234.30
2023-04-25T13:52:30.867Z,99235.73
2023-04-25T13:55:37.142Z,99235.59
2023-04-25T13:58:41.197Z,99234.95
2023-04-25T14:01:45.803Z,99235.38
2023-04-25T14:04:49.866Z,99235.84
2023-04-25T14:07:54.026Z,99234.19
2023-04-25T14:10:58.037Z,99237.42
2023-04-25T14:14:02.158Z,99236.80
2023-04-25T14:17:07.401Z,99234.98
2023-04-25T14:20:12.640Z,99243.75
2023-04-25T14:23:16.961Z,99241.33
2023-04-25T14:26:20.935Z,99235.74
2023-04-25T14:29:24.900Z,99238.12
2023-04-25T14:32:28.978Z,99238.59
2023-04-25T14:35:33.070Z,99237.85
2023-04-25T14:38:37.026Z,99235.51
2023-04-25T14:41:41.284Z,99230.16
2023-04-25T14:44:45.232Z,99237.72
2023-04-25T14:47:49.615Z,99240.98
2023-04-25T14:50:53.726Z,99239.67
2023-04-25T14:53:59.082Z,99239.08
2023-04-25T14:57:03.394Z,99237.91
2023-04-25T15:00:10.377Z,99236.96
2023-04-25T15:03:14.622Z,99233.67
2023-04-25T15:06:19.073Z,99237.14
2023-04-25T15:09:24.986Z,99241.30
2023-04-25T15:12:29.532Z,99242.86
2023-04-25T15:15:33.530Z,99242.64
2023-04-25T15:18:37.552Z,99248.79
2023-04-25T15:21:41.550Z,99251.04
2023-04-25T15:24:45.568Z,99255.67
2023-04-25T15:27:50.614Z,99255.92
2023-04-25T15:30:54.760Z,99257.52
2023-04-25T15:33:58.762Z,99254.31
2023-04-25T15:37:02.770Z,99251.31
2023-04-25T15:40:10.059Z,99251.09
2023-04-25T15:43:16.343Z,99249.43
2023-04-25T15:46:22.114Z,99256.23
2023-04-25T15:49:26.317Z,99263.09
2023-04-25T15:52:30.424Z,99265.71
2023-04-25T15:55:35.067Z,99265.30
2023-04-25T15:58:38.991Z,99265.69
2023-04-25T16:01:43.332Z,99266.48
2023-04-25T16:04:48.125Z,99268.96
2023-04-25T16:07:53.958Z,99267.29
2023-04-25T16:10:58.011Z,99264.29
2023-04-25T16:14:01.989Z,99274.92
2023-04-25T16:17:05.929Z,99276.87
2023-04-25T16:20:12.538Z,99276.59
2023-04-25T16:23:16.632Z,99281.77
2023-04-25T16:26:20.602Z,99281.42
2023-04-25T16:29:24.658Z,99281.58
2023-04-25T16:32:28.784Z,99285.96
2023-04-25T16:35:32.776Z,99286.52
2023-04-25T16:38:39.799Z,99290.92
2023-04-25T16:41:44.096Z,99291.44
2023-04-25T16:44:48.116Z,99296.14
2023-04-25T16:47:52.019Z,99300.70
2023-04-25T16:50:56.874Z,99298.09
2023-04-25T16:54:01.381Z,99300.71
2023-04-25T16:57:05.710Z,99307.35
2023-04-25T17:00:10.789Z,99308.84
2023-04-25T17:03:15.059Z,99306.71
2023-04-25T17:06:19.210Z,99305.98
2023-04-25T17:09:23.309Z,99309.63
2023-04-25T17:12:27.286Z,99312.60
2023-04-25T17:15:34.190Z,99315.96
2023-04-25T17:18:38.970Z,99318.21
2023-04-25T17:21:43.045Z,99319.40
2023-04-25T17:24:47.020Z,99325.52
2023-04-25T17:27:51.486Z,99328.02
2023-04-25T17:30:56.167Z,99326.96
2023-04-25T17:34:00.186Z,99327.35
2023-04-25T17:37:04.174Z,99325.90
2023-04-25T17:40:12.107Z,99330.77
2023-04-25T17:43:16.333Z,99334.58
2023-04-25T17:46:21.410Z,99339.61
2023-04-25T17:49:25.536Z,99338.95
2023-04-25T17:52:29.538Z,99348.80
2023-04-25T17:55:33.686Z,99351.55
2023-04-25T17:58:37.617Z,99354.13
2023-04-25T18:01:45.690Z,99361.44
2023-04-25T18:04:52.406Z,99367.80
2023-04-25T18:07:56.574Z,99374.20
2023-04-25T18:11:00.622Z,99374.48
2023-04-25T18:14:04.655Z,99378.91
2023-04-25T18:17:09.078Z,99382.39
2023-04-25T18:20:17.394Z,99387.45
2023-04-25T18:23:22.018Z,99391.36
2023-04-25T18:26:25.886Z,99395.61
2023-04-25T18:29:33.503Z,99400.38
2023-04-25T18:32:38.256Z,99406.04
2023-04-25T18:35:51.518Z,99409.73
2023-04-25T18:39:15.512Z,99416.29
2023-04-25T18:42:26.372Z,99416.09
2023-04-25T18:45:30.421Z,99418.36
2023-04-25T18:48:34.385Z,99418.72
2023-04-25T18:51:38.409Z,99422.86
2023-04-25T18:54:42.928Z,99426.20
2023-04-25T18:57:47.046Z,99428.70
2023-04-25T19:00:51.185Z,99431.96
2023-04-25T19:03:58.771Z,99432.41
2023-04-25T19:07:04.370Z,99434.01
2023-04-25T19:10:09.388Z,99433.04
2023-04-25T19:13:13.776Z,99432.39
2023-04-25T19:16:19.003Z,99435.38
2023-04-25T19:19:23.141Z,99437.35
2023-04-25T19:22:27.576Z,99440.94
2023-04-25T19:25:32.303Z,99440.91
2023-04-25T19:28:36.642Z,99442.06
2023-04-25T19:31:42.705Z,99443.27
2023-04-25T19:34:46.997Z,99445.13
2023-04-25T19:37:50.980Z,99447.05
2023-04-25T19:40:54.968Z,99447.13
2023-04-25T19:44:04.773Z,99443.50
2023-04-25T19:47:08.804Z,99444.21
2023-04-25T19:50:13.009Z,99448.80
2023-04-25T19:53:17.053Z,99446.25
2023-04-25T19:56:22.058Z,99446.97
2023-04-25T19:59:26.205Z,99446.69
2023-04-25T20:02:30.535Z,99443.21
2023-04-25T20:05:34.647Z,99440.42
2023-04-25T20:08:38.859Z,99438.67
2023-04-25T20:11:42.876Z,99441.00
2023-04-25T20:14:46.780Z,99440.00
2023-04-25T20:17:50.814Z,99439.42
2023-04-25T20:20:54.795Z,99438.31
2023-04-25T20:24:01.416Z,99440.77
2023-04-25T20:27:05.621Z,99440.68
2023-04-25T20:30:12.027Z,99438.70
2023-04-25T20:33:16.178Z,99443.05
2023-04-25T20:36:20.225Z,99442.92
2023-04-25T20:39:24.259Z,99450.47
2023-04-25T20:42:28.249Z,99449.91
2023-04-25T20:45:34.582Z,99447.16
2023-04-25T20:48:38.619Z,99446.16
2023-04-25T20:51:42.972Z,99446.80
2023-04-25T20:54:50.841Z,99451.11
2023-04-25T20:57:54.993Z,99449.94
2023-04-25T21:00:58.992Z,99449.42
2023-04-25T21:04:03.310Z,99452.69
2023-04-25T21:07:07.758Z,99453.92
2023-04-25T21:10:13.018Z,99451.64
2023-04-25T21:13:17.559Z,99450.10
2023-04-25T21:16:21.673Z,99448.65
2023-04-25T21:19:25.644Z,99447.29
2023-04-25T21:22:29.588Z,99445.11
2023-04-25T21:25:33.963Z,99449.08
2023-04-25T21:28:38.021Z,99442.37
2023-04-25T21:31:42.504Z,99446.70
2023-04-25T21:34:46.409Z,99442.77
2023-04-25T21:37:50.867Z,99442.42
2023-04-25T21:40:54.892Z,99440.45
2023-04-25T21:43:58.920Z,99448.81
2023-04-25T21:47:04.597Z,99446.96
2023-04-25T21:50:10.244Z,99445.54
2023-04-25T21:53:14.193Z,99441.55
2023-04-25T21:56:18.157Z,99443.27
2023-04-25T21:59:24.853Z,99440.67
2023-04-25T22:02:31.222Z,99439.02
2023-04-25T22:05:35.508Z,99437.64
2023-04-25T22:08:39.425Z,99441.84
2023-04-25T22:11:43.387Z,99442.13
2023-04-25T22:14:47.569Z,99442.08
2023-04-25T22:17:54.066Z,99447.68
2023-04-25T22:20:58.268Z,99449.31
2023-04-25T22:24:02.786Z,99449.88
2023-04-25T22:27:06.818Z,99451.05
2023-04-25T22:30:14.416Z,99455.56
2023-04-25T22:33:18.423Z,99455.10
2023-04-25T22:36:24.101Z,99459.26
2023-04-25T22:39:28.321Z,99461.14
2023-04-25T22:42:38.557Z,99458.70
2023-04-25T22:45:42.902Z,99460.20
2023-04-25T22:48:48.214Z,99462.03
2023-04-25T22:51:55.728Z,99462.79
2023-04-25T22:54:59.696Z,99465.34
2023-04-25T22:58:04.869Z,99468.96
2023-04-25T23:01:09.012Z,99474.85
2023-04-25T23:04:13.358Z,99473.83
2023-04-25T23:07:18.571Z,99478.98
2023-04-25T23:10:22.601Z,99475.81
2023-04-25T23:13:26.617Z,99478.63
2023-04-25T23:16:30.683Z,99482.58
2023-04-25T23:19:35.011Z,99487.04
2023-04-25T23:22:39.573Z,99479.60
2023-04-25T23:25:43.779Z,99480.75
2023-04-25T23:28:47.916Z,99480.44
2023-04-25T23:31:51.827Z,99487.35
2023-04-25T23:34:56.033Z,99491.78
2023-04-25T23:37:59.983Z,99498.45
2023-04-25T23:41:03.977Z,99505.52
2023-04-25T23:44:08.998Z,99505.91
2023-04-25T23:47:14.331Z,99508.38
2023-04-25T23:50:18.749Z,99505.33
2023-04-25T23:53:22.667Z,99507.87
2023-04-25T23:56:26.915Z,99512.46
2023-04-25T23:59:31.778Z,99509.45
